Weather at Mangaia Island Airport

Public forecast

Using degrees Celsius for public forecast. Weather courtesy of forecast.io.

Closest aviation weather report (METAR) to Mangaia Island Airport

Closest report is Mauke Airport, 110.3 nm (204.2 km) NNE. Retrieved 2021/10/22 03:00 UTC (8 minutes ago):

NCMK 220300Z AUTO 15007KT //// ////// 25/19 Q1010

Closest aviation forecast (TAF) to Mangaia Island Airport

Closest forecast is Rarotonga International Airport, 113.9 nm (211.0 km) WNW. Retrieved 2021-10-22 00:00 UTC (3 hours ago):

TAF NCRG 212311Z 2200/2224 14010KT 9999 FEW030 PROB40 TEMPO 2200/2205 14015G25KT